Time;durP1;ratioP1;P1;durP2;ratioP2;P2;SDS_P1;SDS_P2;PMS_P1;PMS_P2;Temp;Humidity;BMP_temperature;BMP_pressure;BME280_temperature;BME280_humidity;BME280_pressure;Samples;Min_cycle;Max_cycle;Signal;HPM_P1;HPM_P2
2023/07/10 00:01:39;;;;;;;11.87;5.90;;;23.70;9.60;;;;;;5046230;28;20481;-65
2023/07/10 00:04:16;;;;;;;12.50;6.20;;;23.70;9.80;;;;;;5046507;28;21208;-65
2023/07/10 00:06:44;;;;;;;13.67;6.00;;;23.70;9.80;;;;;;5046172;28;20465;-65
2023/07/10 00:09:10;;;;;;;13.33;6.57;;;23.70;9.90;;;;;;5046899;28;20465;-65
2023/07/10 00:11:37;;;;;;;9.20;6.40;;;23.60;9.90;;;;;;5047276;28;20473;-65
2023/07/10 00:14:06;;;;;;;11.37;6.50;;;23.60;9.80;;;;;;5051327;28;20496;-65
2023/07/10 00:16:33;;;;;;;13.10;6.13;;;23.60;9.80;;;;;;5045765;28;20521;-65
2023/07/10 00:19:00;;;;;;;10.53;6.00;;;23.50;9.70;;;;;;5051892;28;20462;-65
2023/07/10 00:21:28;;;;;;;11.07;6.83;;;23.60;9.70;;;;;;5049005;28;20466;-65
2023/07/10 00:23:55;;;;;;;10.57;6.43;;;23.50;9.60;;;;;;5047583;28;20520;-66
2023/07/10 00:26:24;;;;;;;12.40;5.90;;;23.50;9.70;;;;;;5047045;28;20477;-65
2023/07/10 00:28:52;;;;;;;10.47;6.07;;;23.50;9.80;;;;;;5051060;28;20520;-65
2023/07/10 00:31:19;;;;;;;18.57;6.93;;;23.50;9.60;;;;;;5049059;28;20466;-65
2023/07/10 00:33:47;;;;;;;11.10;6.50;;;23.50;9.80;;;;;;5059404;22;20491;-65
2023/07/10 00:36:29;;;;;;;9.90;6.23;;;23.50;10.10;;;;;;5023066;28;20494;-65
2023/07/10 00:38:55;;;;;;;13.43;6.37;;;23.50;10.40;;;;;;5025159;28;20458;-65
2023/07/10 00:41:25;;;;;;;11.80;6.73;;;23.40;10.50;;;;;;5023970;28;20463;-64
2023/07/10 00:43:57;;;;;;;14.20;6.30;;;23.50;10.30;;;;;;5020801;28;20486;-64
2023/07/10 00:46:32;;;;;;;14.73;6.63;;;23.40;10.30;;;;;;5026183;28;20459;-65
2023/07/10 00:49:05;;;;;;;13.00;6.80;;;23.50;10.50;;;;;;5024122;28;20501;-64
2023/07/10 00:51:39;;;;;;;11.97;7.03;;;23.50;10.60;;;;;;5028543;28;20462;-64
2023/07/10 00:54:21;;;;;;;12.43;7.07;;;23.40;10.60;;;;;;5021168;28;20502;-64
2023/07/10 00:56:48;;;;;;;13.50;7.97;;;23.40;10.70;;;;;;5026401;28;20490;-64
2023/07/10 00:59:22;;;;;;;10.00;5.90;;;23.40;10.60;;;;;;5025724;28;20466;-65
2023/07/10 01:02:23;;;;;;;10.93;6.90;;;23.40;10.50;;;;;;5026667;28;20823;-65
2023/07/10 01:04:56;;;;;;;12.43;6.77;;;23.40;10.40;;;;;;4983750;28;20480;-64
2023/07/10 01:07:25;;;;;;;9.87;5.80;;;23.30;10.60;;;;;;4981555;28;20468;-64
2023/07/10 01:09:57;;;;;;;9.63;5.60;;;23.30;10.60;;;;;;5003116;28;20464;-64
2023/07/10 01:12:24;;;;;;;10.83;6.70;;;23.30;10.70;;;;;;5025189;28;20961;-64
2023/07/10 01:14:50;;;;;;;9.70;6.80;;;23.20;11.00;;;;;;5024333;28;20489;-64
2023/07/10 01:17:17;;;;;;;11.40;6.57;;;23.20;11.10;;;;;;5027341;28;20478;-64
2023/07/10 01:19:45;;;;;;;10.47;6.27;;;23.20;11.10;;;;;;5025960;28;20462;-64
2023/07/10 01:22:16;;;;;;;9.00;6.13;;;23.20;11.10;;;;;;5026270;28;20635;-64
2023/07/10 01:24:43;;;;;;;11.67;6.50;;;23.10;11.20;;;;;;5023624;28;20488;-65
2023/07/10 01:27:13;;;;;;;10.70;6.37;;;23.10;11.40;;;;;;5028198;28;20510;-65
2023/07/10 01:29:43;;;;;;;9.77;6.20;;;23.00;11.40;;;;;;5027881;28;20963;-65
2023/07/10 01:32:12;;;;;;;9.93;5.90;;;23.00;11.60;;;;;;5022613;28;20490;-65
2023/07/10 01:34:41;;;;;;;12.30;6.80;;;22.90;11.60;;;;;;5023340;28;20486;-64
2023/07/10 01:37:09;;;;;;;10.50;6.60;;;22.90;11.80;;;;;;5022309;28;20468;-64
2023/07/10 01:39:40;;;;;;;14.83;6.50;;;22.80;11.90;;;;;;5024300;28;20490;-65
2023/07/10 01:42:07;;;;;;;11.90;6.10;;;22.70;12.00;;;;;;5025102;28;20460;-64
2023/07/10 01:44:36;;;;;;;14.00;6.87;;;22.70;12.20;;;;;;5028055;28;20481;-64
2023/07/10 01:47:05;;;;;;;14.60;6.97;;;22.60;12.60;;;;;;5027571;28;20556;-64
2023/07/10 01:49:37;;;;;;;12.50;6.63;;;22.50;12.90;;;;;;5025047;28;20482;-64
2023/07/10 01:52:07;;;;;;;11.93;6.10;;;22.50;13.20;;;;;;5027555;28;20462;-65
2023/07/10 01:54:34;;;;;;;12.47;6.10;;;22.40;13.30;;;;;;5024062;28;20483;-65
2023/07/10 01:57:02;;;;;;;14.03;7.43;;;22.30;13.60;;;;;;5024050;28;20458;-65
2023/07/10 01:59:29;;;;;;;10.90;6.37;;;22.20;13.80;;;;;;5022130;28;20470;-65
2023/07/10 02:01:57;;;;;;;10.13;5.97;;;22.20;13.90;;;;;;5027257;28;20479;-65
2023/07/10 02:04:24;;;;;;;11.87;6.80;;;22.00;14.40;;;;;;5029999;28;20566;-65
2023/07/10 02:06:54;;;;;;;10.30;6.67;;;22.00;14.70;;;;;;5026716;28;20459;-64
2023/07/10 02:09:21;;;;;;;14.87;6.63;;;21.90;14.90;;;;;;5026364;28;20474;-65
2023/07/10 02:11:47;;;;;;;13.40;7.40;;;21.80;14.80;;;;;;5027508;28;20467;-64
2023/07/10 02:14:16;;;;;;;10.70;6.77;;;21.80;15.00;;;;;;5027553;28;21014;-64
2023/07/10 02:16:42;;;;;;;8.60;6.40;;;21.80;15.00;;;;;;5025469;28;20471;-65
2023/07/10 02:19:09;;;;;;;10.37;6.90;;;21.80;14.80;;;;;;5022514;28;20459;-64
2023/07/10 02:21:36;;;;;;;9.83;6.40;;;21.80;14.80;;;;;;5022689;28;20458;-64
2023/07/10 02:24:03;;;;;;;11.50;6.60;;;21.80;14.70;;;;;;5025285;28;20479;-65
2023/07/10 02:26:29;;;;;;;11.90;6.70;;;21.80;14.60;;;;;;5019044;28;20474;-65
2023/07/10 02:28:57;;;;;;;10.43;6.53;;;21.80;14.50;;;;;;5022706;28;20480;-65
2023/07/10 02:31:25;;;;;;;9.00;6.10;;;21.80;14.40;;;;;;5028392;28;20487;-65
2023/07/10 02:33:52;;;;;;;11.50;6.20;;;21.70;14.50;;;;;;5024773;28;20497;-65
2023/07/10 02:36:20;;;;;;;11.27;6.60;;;21.70;14.60;;;;;;5028450;28;20500;-64
2023/07/10 02:38:47;;;;;;;12.53;6.13;;;21.70;14.50;;;;;;5026957;28;20459;-64
2023/07/10 02:41:14;;;;;;;12.10;6.80;;;21.60;14.30;;;;;;5022838;28;20474;-65
2023/07/10 02:43:40;;;;;;;11.70;6.43;;;21.60;14.40;;;;;;5023952;28;20483;-65
2023/07/10 02:46:07;;;;;;;10.00;6.53;;;21.60;14.30;;;;;;5026147;28;20463;-65
2023/07/10 02:48:35;;;;;;;11.27;6.30;;;21.60;14.30;;;;;;5025948;28;20926;-64
2023/07/10 02:51:02;;;;;;;9.87;6.20;;;21.60;14.30;;;;;;5023747;28;20474;-65
2023/07/10 02:53:28;;;;;;;10.57;6.43;;;21.60;13.90;;;;;;5022774;28;20487;-64
2023/07/10 02:55:55;;;;;;;14.03;6.33;;;21.70;13.80;;;;;;5020111;28;20466;-64
2023/07/10 02:58:22;;;;;;;8.73;5.73;;;21.70;13.60;;;;;;5026182;28;20455;-65
2023/07/10 03:00:56;;;;;;;11.80;6.90;;;21.70;13.50;;;;;;5027804;28;20490;-65
2023/07/10 03:03:22;;;;;;;11.73;7.40;;;21.70;13.20;;;;;;5025861;28;20545;-65
2023/07/10 03:05:55;;;;;;;10.67;6.70;;;21.80;12.90;;;;;;5025999;28;21043;-64
2023/07/10 03:08:22;;;;;;;10.27;6.23;;;21.80;12.80;;;;;;5025257;28;20479;-65
2023/07/10 03:10:47;;;;;;;12.23;7.10;;;21.80;12.70;;;;;;5025977;28;20497;-65
2023/07/10 03:13:14;;;;;;;12.17;6.67;;;21.90;12.70;;;;;;5025020;28;20902;-65
2023/07/10 03:15:41;;;;;;;10.47;5.43;;;21.90;12.80;;;;;;5021395;28;20240;-65
2023/07/10 03:18:07;;;;;;;8.43;5.80;;;21.90;12.90;;;;;;5027500;28;20463;-65
2023/07/10 03:20:34;;;;;;;9.27;5.90;;;21.90;13.10;;;;;;5023049;28;20941;-64
2023/07/10 03:23:02;;;;;;;12.67;6.40;;;21.90;13.00;;;;;;5016834;28;20467;-64
2023/07/10 03:25:29;;;;;;;9.30;5.97;;;21.90;13.40;;;;;;5020642;28;20463;-65
2023/07/10 03:27:55;;;;;;;12.03;6.53;;;21.90;13.30;;;;;;5020491;28;20951;-65
2023/07/10 03:30:22;;;;;;;11.27;5.63;;;21.90;13.80;;;;;;5018450;28;20848;-65
2023/07/10 03:32:50;;;;;;;12.90;7.10;;;21.90;14.40;;;;;;5024799;28;20466;-65
2023/07/10 03:35:17;;;;;;;10.10;6.20;;;21.90;14.80;;;;;;5022490;28;20467;-65
2023/07/10 03:37:44;;;;;;;10.57;6.53;;;21.80;15.40;;;;;;5024799;28;20462;-65
2023/07/10 03:40:12;;;;;;;13.67;6.87;;;21.80;15.60;;;;;;5023238;28;20459;-66
2023/07/10 03:42:39;;;;;;;10.10;6.00;;;21.80;16.10;;;;;;5021877;28;20463;-65
2023/07/10 03:45:07;;;;;;;11.80;7.17;;;21.80;16.90;;;;;;5022579;28;20487;-65
2023/07/10 03:47:33;;;;;;;17.00;6.77;;;21.80;16.90;;;;;;5021172;28;20459;-66
2023/07/10 03:50:00;;;;;;;11.70;6.63;;;21.70;16.70;;;;;;5016920;28;20492;-66
2023/07/10 03:52:27;;;;;;;11.63;6.97;;;21.80;16.40;;;;;;5023584;28;21026;-65
2023/07/10 03:54:53;;;;;;;10.60;6.80;;;21.90;16.20;;;;;;5022895;28;20487;-67
2023/07/10 03:57:21;;;;;;;12.27;6.20;;;21.90;16.10;;;;;;5020704;28;20544;-67
2023/07/10 03:59:48;;;;;;;12.73;6.90;;;21.90;16.50;;;;;;5016800;28;20456;-64
2023/07/10 04:02:15;;;;;;;10.07;6.57;;;21.90;16.30;;;;;;5024018;28;20895;-66
2023/07/10 04:04:41;;;;;;;15.97;7.90;;;21.90;16.10;;;;;;5026045;28;20481;-65
2023/07/10 04:07:08;;;;;;;12.27;5.97;;;21.90;15.70;;;;;;5024798;28;20460;-66
2023/07/10 04:09:35;;;;;;;9.10;6.53;;;21.90;16.20;;;;;;5024138;28;20483;-65
2023/07/10 04:12:02;;;;;;;14.63;6.90;;;21.90;15.60;;;;;;5021240;28;21035;-65
2023/07/10 04:14:30;;;;;;;14.63;6.97;;;21.90;15.30;;;;;;5019136;28;20485;-66
2023/07/10 04:16:58;;;;;;;9.67;6.53;;;21.90;15.00;;;;;;5020126;28;20462;-65
2023/07/10 04:19:25;;;;;;;15.43;6.77;;;21.90;14.90;;;;;;5026271;28;20520;-66
2023/07/10 04:21:51;;;;;;;11.13;6.20;;;21.90;14.80;;;;;;5026399;28;20466;-65
2023/07/10 04:24:18;;;;;;;10.80;6.90;;;21.90;14.60;;;;;;5023565;28;20499;-65
2023/07/10 04:26:45;;;;;;;10.77;6.40;;;21.90;14.60;;;;;;5025970;28;20459;-65
2023/07/10 04:29:13;;;;;;;12.10;7.30;;;22.00;14.60;;;;;;5025842;28;20570;-65
2023/07/10 04:31:41;;;;;;;10.10;6.40;;;22.00;14.50;;;;;;5026622;28;20475;-65
2023/07/10 04:34:08;;;;;;;10.50;6.60;;;22.00;14.60;;;;;;5015586;28;20470;-65
2023/07/10 04:36:35;;;;;;;9.23;6.30;;;22.00;14.60;;;;;;5025395;28;20499;-65
2023/07/10 04:39:03;;;;;;;11.50;6.10;;;22.00;14.80;;;;;;5024003;28;20491;-65
2023/07/10 04:41:29;;;;;;;12.63;7.43;;;22.10;14.50;;;;;;5023326;28;20454;-66
2023/07/10 04:43:56;;;;;;;10.07;6.40;;;22.10;14.20;;;;;;5023369;28;20474;-65
2023/07/10 04:46:23;;;;;;;10.20;6.10;;;22.20;14.10;;;;;;5021891;28;20459;-65
2023/07/10 04:48:51;;;;;;;11.03;6.53;;;22.20;14.10;;;;;;5024905;28;20485;-65
2023/07/10 04:51:19;;;;;;;9.20;6.23;;;22.20;14.20;;;;;;5021368;28;20515;-65
2023/07/10 04:53:46;;;;;;;9.47;6.30;;;22.20;14.30;;;;;;5022172;28;20479;-66
2023/07/10 04:56:15;;;;;;;12.10;6.83;;;22.20;14.50;;;;;;5027354;28;20959;-65
2023/07/10 04:58:52;;;;;;;12.37;7.23;;;22.20;14.30;;;;;;5027234;28;20467;-65
2023/07/10 05:01:21;;;;;;;11.33;6.77;;;22.30;14.30;;;;;;5030576;28;20478;-65
2023/07/10 05:03:48;;;;;;;10.93;6.27;;;22.30;14.50;;;;;;5031336;28;20474;-65
2023/07/10 05:06:17;;;;;;;8.70;5.57;;;22.30;14.50;;;;;;5035560;28;20465;-65
2023/07/10 05:08:44;;;;;;;11.00;7.10;;;22.30;14.50;;;;;;5030774;28;20483;-65
2023/07/10 05:11:11;;;;;;;10.80;7.23;;;22.30;14.80;;;;;;5017500;28;20463;-66
2023/07/10 05:13:37;;;;;;;9.83;6.80;;;22.30;14.80;;;;;;5028543;28;20505;-65
2023/07/10 05:16:05;;;;;;;12.20;6.10;;;22.30;14.80;;;;;;5026353;28;20462;-65
2023/07/10 05:18:31;;;;;;;14.70;6.93;;;22.40;14.90;;;;;;5026126;28;20463;-65
2023/07/10 05:20:59;;;;;;;17.57;6.77;;;22.40;14.90;;;;;;5026755;28;20466;-65
2023/07/10 05:23:28;;;;;;;10.80;6.80;;;22.40;15.50;;;;;;5027239;28;20482;-65
2023/07/10 05:25:56;;;;;;;10.80;6.40;;;22.40;15.50;;;;;;5026585;28;20459;-65
2023/07/10 05:28:23;;;;;;;13.47;6.57;;;22.40;15.30;;;;;;5025678;28;20578;-65
2023/07/10 05:30:50;;;;;;;13.47;6.60;;;22.50;14.90;;;;;;5027763;28;20495;-65
2023/07/10 05:33:16;;;;;;;11.80;7.70;;;22.50;14.90;;;;;;5028909;28;20483;-65
2023/07/10 05:35:49;;;;;;;11.60;7.23;;;22.50;15.00;;;;;;5022679;28;20962;-65
2023/07/10 05:38:16;;;;;;;11.33;7.50;;;22.50;15.10;;;;;;5022580;28;20467;-65
2023/07/10 05:40:44;;;;;;;11.80;6.67;;;22.50;14.50;;;;;;5024751;28;20470;-65
2023/07/10 05:43:11;;;;;;;11.70;6.57;;;22.40;14.90;;;;;;5027485;28;20492;-65
2023/07/10 05:45:38;;;;;;;12.10;6.80;;;22.40;14.30;;;;;;5029211;28;20462;-65
2023/07/10 05:48:05;;;;;;;11.77;6.60;;;22.40;14.70;;;;;;5023514;28;20463;-65
2023/07/10 05:50:32;;;;;;;12.93;5.80;;;22.50;14.80;;;;;;5024423;28;20515;-65
2023/07/10 05:52:59;;;;;;;10.43;6.20;;;22.50;14.50;;;;;;5025864;28;20460;-66
2023/07/10 05:55:26;;;;;;;9.53;6.30;;;22.60;14.40;;;;;;5027878;28;20520;-65
2023/07/10 05:57:54;;;;;;;9.87;5.97;;;22.60;14.00;;;;;;5024658;28;20467;-65
2023/07/10 06:00:20;;;;;;;9.37;5.63;;;22.60;14.00;;;;;;5027723;28;20451;-65
2023/07/10 06:02:47;;;;;;;11.53;5.87;;;22.60;13.30;;;;;;5024312;28;20460;-66
2023/07/10 06:05:14;;;;;;;12.97;5.50;;;22.60;13.10;;;;;;5027171;28;20463;-66
2023/07/10 06:07:41;;;;;;;11.83;6.40;;;22.70;13.00;;;;;;5027133;28;20459;-65
2023/07/10 06:10:08;;;;;;;13.30;6.40;;;22.70;12.80;;;;;;5026809;28;20490;-65
2023/07/10 06:12:35;;;;;;;10.37;6.00;;;22.70;12.80;;;;;;5027671;28;20466;-66
2023/07/10 06:15:03;;;;;;;10.20;6.10;;;22.70;12.70;;;;;;5027427;28;20479;-66
2023/07/10 06:17:29;;;;;;;10.90;5.97;;;22.70;12.90;;;;;;5030036;28;20596;-66
2023/07/10 06:19:56;;;;;;;11.37;6.67;;;22.70;13.40;;;;;;5030156;28;20451;-65
2023/07/10 06:22:23;;;;;;;14.07;6.73;;;22.70;14.10;;;;;;5020718;28;20454;-65
2023/07/10 06:24:49;;;;;;;9.03;5.87;;;22.70;15.10;;;;;;5022044;28;20843;-65
2023/07/10 06:27:16;;;;;;;9.93;5.90;;;22.70;15.20;;;;;;5025965;28;20470;-65
2023/07/10 06:29:43;;;;;;;15.37;7.00;;;22.70;15.10;;;;;;5024120;28;20480;-65
2023/07/10 06:32:11;;;;;;;13.00;6.00;;;22.60;15.30;;;;;;5021185;28;20992;-65
2023/07/10 06:34:38;;;;;;;11.07;5.90;;;22.60;15.60;;;;;;5020636;28;20490;-65
2023/07/10 06:37:05;;;;;;;10.73;6.03;;;22.60;15.50;;;;;;5021080;28;20948;-66
2023/07/10 06:39:31;;;;;;;9.87;6.33;;;22.60;16.10;;;;;;5021785;28;20939;-65
2023/07/10 06:41:58;;;;;;;13.70;6.07;;;22.60;16.70;;;;;;5028320;28;20465;-65
2023/07/10 06:44:25;;;;;;;12.03;7.03;;;22.50;18.30;;;;;;5024862;28;20481;-65
2023/07/10 06:46:51;;;;;;;13.33;7.60;;;22.50;19.00;;;;;;5028529;28;20965;-66
2023/07/10 06:49:19;;;;;;;10.87;7.37;;;22.50;19.60;;;;;;5027321;28;20482;-66
2023/07/10 06:51:46;;;;;;;14.83;7.57;;;22.50;20.20;;;;;;5027303;28;20974;-65
2023/07/10 06:54:13;;;;;;;17.13;7.23;;;22.60;19.90;;;;;;5018837;28;20483;-65
2023/07/10 06:56:39;;;;;;;15.53;6.53;;;22.50;20.00;;;;;;5019640;28;20475;-66
2023/07/10 06:59:06;;;;;;;10.60;6.93;;;22.50;20.30;;;;;;5020583;28;20872;-65
2023/07/10 07:01:33;;;;;;;12.20;6.73;;;22.50;20.40;;;;;;5022856;28;20467;-67
2023/07/10 07:03:59;;;;;;;12.97;6.97;;;22.50;20.60;;;;;;5023274;28;20482;-65
2023/07/10 07:06:27;;;;;;;12.30;6.47;;;22.40;21.40;;;;;;5020399;28;20486;-65
2023/07/10 07:08:54;;;;;;;19.07;7.70;;;22.50;21.10;;;;;;5020820;28;20458;-66
2023/07/10 07:11:21;;;;;;;13.90;7.90;;;22.50;21.60;;;;;;5017855;28;20486;-65
2023/07/10 07:13:48;;;;;;;9.60;7.03;;;22.50;22.70;;;;;;5021782;28;20829;-66
2023/07/10 07:16:14;;;;;;;14.10;7.30;;;22.50;22.80;;;;;;5025495;28;20466;-65
2023/07/10 07:18:41;;;;;;;13.27;6.30;;;22.60;23.30;;;;;;5023118;28;20467;-65
2023/07/10 07:21:13;;;;;;;16.90;7.83;;;22.60;22.80;;;;;;5015875;28;20478;-65
2023/07/10 07:23:41;;;;;;;13.47;6.70;;;22.50;22.20;;;;;;5025648;28;20831;-65
2023/07/10 07:26:08;;;;;;;10.60;6.77;;;22.40;22.20;;;;;;5025474;28;20486;-65
2023/07/10 07:28:35;;;;;;;11.27;6.43;;;22.30;22.30;;;;;;5028845;28;20463;-65
2023/07/10 07:31:03;;;;;;;12.07;6.47;;;22.30;21.70;;;;;;5024815;28;20506;-65
2023/07/10 07:33:30;;;;;;;15.47;7.57;;;22.30;22.20;;;;;;5019946;28;20478;-65
2023/07/10 07:35:59;;;;;;;13.30;6.40;;;22.20;22.00;;;;;;5020601;28;20470;-66
2023/07/10 07:38:26;;;;;;;11.00;7.07;;;22.20;22.70;;;;;;5025804;28;20462;-65
2023/07/10 07:40:56;;;;;;;14.97;6.93;;;22.20;24.40;;;;;;5028363;28;20459;-65
2023/07/10 07:43:23;;;;;;;11.63;6.30;;;22.20;24.10;;;;;;5021602;28;20478;-65
2023/07/10 07:45:54;;;;;;;11.70;6.80;;;22.30;24.40;;;;;;5022934;28;20459;-65
2023/07/10 07:48:21;;;;;;;14.00;7.17;;;22.30;24.10;;;;;;5016506;28;20818;-65
2023/07/10 07:50:56;;;;;;;12.33;7.00;;;22.30;24.30;;;;;;5026211;28;20487;-65
2023/07/10 07:53:23;;;;;;;11.60;6.70;;;22.30;24.10;;;;;;5020677;28;20517;-65
2023/07/10 07:55:50;;;;;;;11.83;6.70;;;22.30;24.00;;;;;;5022614;28;20464;-66
2023/07/10 07:58:18;;;;;;;13.93;7.90;;;22.40;23.80;;;;;;5027822;28;20470;-66
2023/07/10 08:00:45;;;;;;;13.10;7.00;;;22.40;24.20;;;;;;5019972;28;20590;-65
2023/07/10 08:03:12;;;;;;;11.80;6.80;;;22.50;24.20;;;;;;5022834;28;20482;-65
2023/07/10 08:05:39;;;;;;;12.50;7.70;;;22.50;24.50;;;;;;5023956;28;20466;-65
2023/07/10 08:08:09;;;;;;;12.33;6.20;;;22.60;24.90;;;;;;5020232;28;20459;-65
2023/07/10 08:10:37;;;;;;;11.40;7.10;;;22.80;24.10;;;;;;5026393;28;20490;-65
2023/07/10 08:13:05;;;;;;;12.30;7.57;;;22.90;23.90;;;;;;5022606;28;20553;-65
2023/07/10 08:15:33;;;;;;;12.60;6.67;;;23.20;23.30;;;;;;5019911;28;20501;-65
2023/07/10 08:18:00;;;;;;;9.03;6.00;;;23.40;22.50;;;;;;5017915;28;20456;-65
2023/07/10 08:20:26;;;;;;;15.30;6.00;;;23.60;21.70;;;;;;5021244;28;20813;-65
2023/07/10 08:22:53;;;;;;;9.97;6.30;;;23.90;20.90;;;;;;5023114;28;20463;-65
2023/07/10 08:25:20;;;;;;;8.83;5.90;;;24.10;19.80;;;;;;5023647;28;20466;-65
2023/07/10 08:27:47;;;;;;;12.20;6.30;;;24.30;19.30;;;;;;5023009;28;20459;-65
2023/07/10 08:30:14;;;;;;;12.30;5.90;;;24.70;18.70;;;;;;5023925;28;20486;-66
2023/07/10 08:32:44;;;;;;;8.93;5.60;;;26.40;16.90;;;;;;5024221;28;20451;-66
2023/07/10 08:35:11;;;;;;;9.60;5.17;;;27.90;11.60;;;;;;5018788;28;20506;-66
2023/07/10 08:37:38;;;;;;;10.03;5.80;;;28.50;10.20;;;;;;5025674;28;20481;-66
2023/07/10 08:40:06;;;;;;;9.97;5.50;;;29.40;8.20;;;;;;5029280;28;20455;-66
2023/07/10 08:42:34;;;;;;;12.57;5.87;;;29.90;6.70;;;;;;5027626;28;20462;-66
2023/07/10 08:45:02;;;;;;;11.10;5.83;;;29.90;6.10;;;;;;5026600;28;20479;-66
2023/07/10 08:47:35;;;;;;;9.93;5.50;;;31.30;5.40;;;;;;5025278;28;20964;-66
2023/07/10 08:50:10;;;;;;;11.70;5.30;;;35.50;1.00;;;;;;5030897;28;20487;-66
2023/07/10 08:52:44;;;;;;;9.10;5.17;;;39.20;1.00;;;;;;5021588;28;20462;-66
2023/07/10 08:55:13;;;;;;;9.93;5.07;;;42.10;1.00;;;;;;5030449;28;20497;-66
2023/07/10 08:57:44;;;;;;;8.30;4.60;;;44.60;1.00;;;;;;5023676;28;20467;-66
2023/07/10 09:00:13;;;;;;;10.43;5.10;;;46.30;1.00;;;;;;5029662;28;20466;-65
2023/07/10 09:02:43;;;;;;;7.43;4.30;;;47.50;1.00;;;;;;5026225;28;20494;-66
2023/07/10 09:05:19;;;;;;;8.60;4.63;;;48.40;1.00;;;;;;5027043;28;20513;-66
2023/07/10 09:07:48;;;;;;;8.37;4.57;;;49.50;1.00;;;;;;5027757;28;20460;-66
2023/07/10 09:10:20;;;;;;;6.33;4.07;;;50.60;1.00;;;;;;5030567;28;20493;-65
2023/07/10 09:12:50;;;;;;;8.27;3.93;;;51.30;1.00;;;;;;5019810;28;20467;-66
2023/07/10 09:15:25;;;;;;;13.10;4.10;;;51.80;1.00;;;;;;5024222;28;20461;-66
2023/07/10 09:18:00;;;;;;;8.97;4.33;;;52.40;1.00;;;;;;5023677;28;20467;-65
2023/07/10 09:20:28;;;;;;;7.40;4.00;;;52.60;1.00;;;;;;5027751;28;20458;-65
2023/07/10 09:22:59;;;;;;;7.23;4.23;;;52.40;1.00;;;;;;5024308;28;20939;-65
2023/07/10 09:25:26;;;;;;;8.17;4.20;;;52.60;1.00;;;;;;5022135;28;20885;-66
2023/07/10 09:27:54;;;;;;;6.50;3.83;;;52.60;1.00;;;;;;5027906;28;20470;-66
2023/07/10 09:30:31;;;;;;;7.13;4.33;;;52.30;1.00;;;;;;5026393;28;21025;-66
2023/07/10 09:33:02;;;;;;;8.73;4.50;;;51.60;1.00;;;;;;5027551;28;20939;-65
2023/07/10 09:35:30;;;;;;;6.73;4.27;;;49.90;1.00;;;;;;5022930;28;20469;-66
2023/07/10 09:37:57;;;;;;;6.37;3.70;;;48.20;1.00;;;;;;5028568;28;20459;-65
2023/07/10 09:40:39;;;;;;;7.13;3.93;;;46.40;1.00;;;;;;5029788;28;20462;-65
2023/07/10 09:43:12;;;;;;;5.60;3.70;;;44.90;1.00;;;;;;5026364;28;21260;-66
2023/07/10 09:45:43;;;;;;;5.80;3.67;;;43.40;1.00;;;;;;5025919;28;20464;-64
2023/07/10 09:48:24;;;;;;;7.63;3.60;;;42.10;1.00;;;;;;5026771;28;20935;-65
2023/07/10 09:50:54;;;;;;;7.80;3.87;;;40.80;1.00;;;;;;5041336;23;20513;-68
2023/07/10 09:53:25;;;;;;;8.23;4.17;;;39.70;1.00;;;;;;5040089;28;20478;-68
2023/07/10 09:55:52;;;;;;;9.70;4.30;;;38.80;1.00;;;;;;5049846;28;20485;-68
2023/07/10 09:58:18;;;;;;;8.10;4.27;;;37.80;1.00;;;;;;5049004;28;20458;-68
2023/07/10 10:00:46;;;;;;;7.80;4.03;;;37.10;1.00;;;;;;5045967;28;20489;-68
2023/07/10 10:03:18;;;;;;;6.30;4.03;;;36.50;1.00;;;;;;5049213;28;20473;-68
2023/07/10 10:05:52;;;;;;;7.67;4.30;;;36.10;1.00;;;;;;5048722;28;20461;-67
2023/07/10 10:08:25;;;;;;;8.90;4.57;;;35.70;1.00;;;;;;5050412;28;20475;-67
2023/07/10 10:11:06;;;;;;;7.53;4.60;;;35.40;1.00;;;;;;5045727;28;20486;-67
2023/07/10 10:13:38;;;;;;;7.37;4.37;;;35.20;1.00;;;;;;5048393;28;20474;-67
2023/07/10 10:16:08;;;;;;;8.47;4.80;;;34.90;1.00;;;;;;5046769;28;20459;-67
2023/07/10 10:18:41;;;;;;;8.53;4.60;;;34.60;1.00;;;;;;5049859;28;20490;-68
2023/07/10 10:21:11;;;;;;;10.20;4.77;;;34.50;1.00;;;;;;5049376;28;20458;-67
2023/07/10 10:23:41;;;;;;;9.37;4.37;;;34.40;1.00;;;;;;5048719;28;20482;-67
2023/07/10 10:26:24;;;;;;;8.40;5.47;;;34.40;1.00;;;;;;5049287;28;20461;-66
2023/07/10 10:29:13;;;;;;;7.90;5.00;;;34.30;1.00;;;;;;5048315;28;20866;-67
2023/07/10 10:31:41;;;;;;;8.83;4.50;;;34.10;1.00;;;;;;5046361;28;20508;-67
2023/07/10 10:34:16;;;;;;;8.70;4.77;;;33.70;1.00;;;;;;5047761;28;20481;-67
2023/07/10 10:37:03;;;;;;;9.87;4.93;;;33.50;1.00;;;;;;5049147;28;20465;-67
2023/07/10 10:39:37;;;;;;;9.93;6.40;;;33.40;1.00;;;;;;5046337;28;20462;-66
2023/07/10 10:42:10;;;;;;;8.30;4.60;;;33.50;1.00;;;;;;5048137;28;20856;-67
2023/07/10 10:44:51;;;;;;;10.13;5.13;;;33.50;1.00;;;;;;5048484;28;20478;-66
2023/07/10 10:47:32;;;;;;;11.57;5.73;;;33.40;1.00;;;;;;5047608;28;20461;-66
2023/07/10 10:50:08;;;;;;;8.33;5.00;;;33.20;1.00;;;;;;5046497;28;20463;-66
2023/07/10 10:52:44;;;;;;;8.60;5.10;;;33.10;1.00;;;;;;5049019;28;20472;-67
2023/07/10 10:55:31;;;;;;;7.80;4.80;;;33.00;1.00;;;;;;5045322;28;20473;-70
2023/07/10 10:58:12;;;;;;;8.30;4.67;;;33.10;1.00;;;;;;5048207;28;20462;-69
2023/07/10 11:00:57;;;;;;;7.77;4.53;;;33.00;1.00;;;;;;5044340;28;20465;-69
2023/07/10 11:03:29;;;;;;;10.00;4.50;;;33.10;1.00;;;;;;5044285;28;20489;-69
2023/07/10 11:05:59;;;;;;;9.17;4.97;;;33.10;1.00;;;;;;5045881;28;20463;-69
2023/07/10 11:08:31;;;;;;;9.00;4.23;;;33.10;1.00;;;;;;5049168;28;20473;-69
2023/07/10 11:10:59;;;;;;;8.87;5.13;;;33.10;1.00;;;;;;5048656;28;20478;-69
2023/07/10 11:13:32;;;;;;;10.00;6.13;;;33.00;1.00;;;;;;5048510;28;20489;-69
2023/07/10 11:16:01;;;;;;;9.00;5.40;;;32.90;1.00;;;;;;5046672;28;20458;-69
2023/07/10 11:18:27;;;;;;;8.60;5.43;;;33.10;1.00;;;;;;5048769;28;20464;-70
2023/07/10 11:20:55;;;;;;;7.83;4.60;;;33.20;1.00;;;;;;5046898;28;20455;-69
2023/07/10 11:23:36;;;;;;;7.33;4.40;;;33.20;1.00;;;;;;5048470;28;20486;-70
2023/07/10 11:26:09;;;;;;;8.33;5.03;;;33.20;1.00;;;;;;5048435;28;20457;-69
2023/07/10 11:28:38;;;;;;;8.67;5.10;;;33.20;1.00;;;;;;5046149;28;20460;-69
2023/07/10 11:31:34;;;;;;;10.93;5.30;;;33.10;1.00;;;;;;5047983;28;20462;-69
2023/07/10 11:34:47;;;;;;;8.50;5.17;;;33.00;1.00;;;;;;5047425;28;20482;-69
2023/07/10 11:37:50;;;;;;;8.20;4.37;;;33.00;1.00;;;;;;5046499;28;20868;-69
2023/07/10 11:40:43;;;;;;;8.00;4.57;;;33.10;1.00;;;;;;5047734;28;20457;-69
2023/07/10 11:43:58;;;;;;;8.33;5.00;;;33.00;1.00;;;;;;5046823;28;20490;-70
2023/07/10 11:46:31;;;;;;;7.90;4.73;;;33.00;1.00;;;;;;5047764;28;20830;-69
2023/07/10 11:49:15;;;;;;;7.33;4.73;;;32.80;1.00;;;;;;5046221;28;20465;-69
2023/07/10 11:51:43;;;;;;;8.43;4.70;;;32.80;1.00;;;;;;5043932;28;20510;-69
2023/07/10 11:54:39;;;;;;;7.93;4.97;;;32.80;1.00;;;;;;5044839;28;20489;-70
2023/07/10 11:57:14;;;;;;;7.23;4.50;;;32.70;1.00;;;;;;5045240;28;20469;-69
2023/07/10 11:59:46;;;;;;;10.13;6.03;;;32.70;1.00;;;;;;5045440;28;20482;-70
2023/07/10 12:02:32;;;;;;;7.83;5.50;;;32.80;1.00;;;;;;5046839;28;20463;-70
2023/07/10 12:05:03;;;;;;;7.80;4.70;;;33.00;1.00;;;;;;5045638;28;20501;-69
2023/07/10 12:07:30;;;;;;;9.80;5.20;;;33.00;1.00;;;;;;5048170;28;20462;-69
2023/07/10 12:09:59;;;;;;;9.53;5.10;;;33.00;1.00;;;;;;5051952;28;20466;-69
2023/07/10 12:12:31;;;;;;;9.97;5.10;;;33.10;1.00;;;;;;5048955;28;20591;-69
2023/07/10 12:15:02;;;;;;;8.87;5.00;;;33.10;1.00;;;;;;5050531;28;20484;-70
2023/07/10 12:17:32;;;;;;;8.07;5.50;;;33.10;1.00;;;;;;5051778;28;20822;-70
2023/07/10 12:20:05;;;;;;;11.07;4.70;;;33.10;1.00;;;;;;5051969;28;20466;-69
2023/07/10 12:22:37;;;;;;;8.60;5.20;;;33.10;1.00;;;;;;5050564;28;20450;-69
2023/07/10 12:25:11;;;;;;;8.23;4.90;;;33.00;1.00;;;;;;5051207;28;20482;-69
2023/07/10 12:27:38;;;;;;;8.03;4.70;;;33.00;1.00;;;;;;5051682;28;20527;-69
2023/07/10 12:30:14;;;;;;;7.83;5.47;;;33.00;1.00;;;;;;5050198;28;20458;-70
2023/07/10 12:32:43;;;;;;;8.20;4.80;;;33.00;1.00;;;;;;5046353;28;20474;-69
2023/07/10 12:35:16;;;;;;;7.90;4.90;;;32.80;1.00;;;;;;5050948;28;20488;-69
2023/07/10 12:37:47;;;;;;;8.10;4.40;;;32.80;1.00;;;;;;5051500;28;20849;-69
2023/07/10 12:40:15;;;;;;;9.53;5.13;;;32.80;1.00;;;;;;5051756;28;20458;-69
2023/07/10 12:42:43;;;;;;;7.97;5.40;;;32.80;1.00;;;;;;5051470;28;20841;-69
2023/07/10 12:45:18;;;;;;;7.00;5.17;;;32.70;1.00;;;;;;5051732;28;20574;-69
2023/07/10 12:47:53;;;;;;;9.03;4.93;;;32.70;1.00;;;;;;5051771;28;20520;-70
2023/07/10 12:50:31;;;;;;;8.17;5.03;;;32.70;1.00;;;;;;5048031;28;20953;-70
2023/07/10 12:52:58;;;;;;;8.03;5.13;;;32.70;1.00;;;;;;5050778;28;20528;-70
2023/07/10 12:55:30;;;;;;;7.43;4.93;;;32.60;1.00;;;;;;5051410;28;20469;-70
2023/07/10 12:57:58;;;;;;;7.07;4.77;;;32.60;1.00;;;;;;5051210;28;20552;-69
2023/07/10 13:00:40;;;;;;;8.10;4.97;;;32.70;1.00;;;;;;5050868;28;20943;-70